Time;durP1;ratioP1;P1;durP2;ratioP2;P2;SDS_P1;SDS_P2;PMS_P1;PMS_P2;Temp;Humidity;BMP_temperature;BMP_pressure;BME280_temperature;BME280_humidity;BME280_pressure;Samples;Min_cycle;Max_cycle;Signal;HPM_P1;HPM_P2
2021/03/23 00:00:43;;;;;;;11.63;3.88;;;;;;;5.00;84.02;102271.63;10166019;28;20100;-68
2021/03/23 00:06:00;;;;;;;12.82;3.95;;;;;;;5.03;83.78;102271.13;10169221;28;20049;-67
2021/03/23 00:10:58;;;;;;;13.02;4.00;;;;;;;4.88;83.70;102268.16;10174566;28;20096;-66
2021/03/23 00:15:54;;;;;;;16.33;5.40;;;;;;;4.96;83.35;102274.00;10166995;28;20100;-67
2021/03/23 00:20:50;;;;;;;18.33;6.10;;;;;;;4.93;83.12;102270.97;10176940;28;20057;-66
2021/03/23 00:25:46;;;;;;;9.23;3.95;;;;;;;4.76;82.96;102274.44;10174342;28;20289;-68
2021/03/23 00:30:42;;;;;;;10.00;4.15;;;;;;;4.73;83.38;102266.78;10169641;28;20806;-69
2021/03/23 00:35:38;;;;;;;8.77;3.63;;;;;;;4.79;83.36;102279.38;10177201;28;20053;-68
2021/03/23 00:40:36;;;;;;;9.50;2.78;;;;;;;4.60;82.39;102286.03;10169251;28;20133;-68
2021/03/23 00:45:37;;;;;;;5.70;2.58;;;;;;;4.68;81.86;102285.63;10169751;28;20113;-66
2021/03/23 00:50:34;;;;;;;10.43;2.05;;;;;;;4.57;81.78;102283.78;10171318;28;20057;-68
2021/03/23 00:55:31;;;;;;;9.35;1.98;;;;;;;4.58;81.32;102285.44;10175049;28;20103;-67
2021/03/23 01:00:27;;;;;;;4.57;1.73;;;;;;;4.56;82.05;102276.72;10173380;28;20077;-69
2021/03/23 01:05:26;;;;;;;7.47;1.83;;;;;;;4.57;82.25;102267.53;10170993;28;20062;-66
2021/03/23 01:10:25;;;;;;;9.32;2.25;;;;;;;4.42;83.41;102271.56;10168806;28;20043;-67
2021/03/23 01:15:27;;;;;;;6.85;1.92;;;;;;;4.52;83.76;102260.13;10165693;28;20062;-67
2021/03/23 01:20:25;;;;;;;11.00;2.30;;;;;;;4.48;83.32;102258.13;10163740;28;20045;-66
2021/03/23 01:25:22;;;;;;;7.82;2.58;;;;;;;4.40;83.71;102249.31;10171723;28;20084;-66
2021/03/23 01:30:21;;;;;;;4.35;2.40;;;;;;;4.30;83.71;102246.41;10169336;28;20050;-67
2021/03/23 01:35:19;;;;;;;11.75;2.38;;;;;;;4.25;84.30;102238.16;10173334;28;20046;-68
2021/03/23 01:40:18;;;;;;;4.90;2.22;;;;;;;4.47;84.01;102240.25;10167262;28;20054;-69
2021/03/23 01:45:23;;;;;;;6.40;2.20;;;;;;;4.54;83.19;102243.63;10157881;28;20109;-69
2021/03/23 01:50:20;;;;;;;7.32;2.22;;;;;;;4.55;82.51;102231.72;10168758;28;20050;-68
2021/03/23 01:55:16;;;;;;;7.18;2.38;;;;;;;4.56;81.68;102244.22;10161421;28;20117;-67
2021/03/23 02:00:12;;;;;;;8.45;2.30;;;;;;;4.62;81.65;102249.50;10164999;28;20050;-68
2021/03/23 02:05:17;;;;;;;6.13;2.00;;;;;;;4.54;81.82;102254.47;10154438;28;20093;-68
2021/03/23 02:10:14;;;;;;;5.78;1.95;;;;;;;4.68;80.10;102253.13;10176876;28;20081;-69
2021/03/23 02:15:12;;;;;;;6.07;1.85;;;;;;;4.77;79.50;102256.28;10170860;28;20041;-70
2021/03/23 02:20:08;;;;;;;8.90;2.00;;;;;;;4.70;79.22;102242.88;10181541;28;20053;-68
2021/03/23 02:25:13;;;;;;;8.43;2.33;;;;;;;4.77;79.35;102240.84;10182373;28;20089;-68
2021/03/23 02:30:17;;;;;;;4.35;1.58;;;;;;;4.77;79.15;102243.56;10179545;28;20052;-69
2021/03/23 02:35:13;;;;;;;8.73;2.03;;;;;;;4.82;78.62;102240.94;10180643;28;20050;-70
2021/03/23 02:40:09;;;;;;;7.22;1.80;;;;;;;4.75;78.96;102237.53;10175286;28;20460;-68
2021/03/23 02:45:06;;;;;;;7.50;1.80;;;;;;;4.79;78.08;102249.56;10169350;28;20086;-68
2021/03/23 02:50:03;;;;;;;9.45;2.85;;;;;;;4.79;78.19;102254.97;10178352;28;20054;-68
2021/03/23 02:55:00;;;;;;;7.85;2.15;;;;;;;4.67;79.08;102240.66;10179453;28;20046;-69
2021/03/23 02:59:56;;;;;;;7.57;1.90;;;;;;;4.69;78.74;102243.94;10171898;28;20045;-69
2021/03/23 03:04:52;;;;;;;7.03;1.65;;;;;;;4.72;77.82;102238.03;10178902;28;20050;-69
2021/03/23 03:09:48;;;;;;;10.13;2.10;;;;;;;4.79;78.03;102240.63;10174928;28;20097;-70
2021/03/23 03:14:43;;;;;;;4.90;1.80;;;;;;;4.85;77.73;102253.22;10168526;28;20531;-70
2021/03/23 03:19:39;;;;;;;6.10;1.80;;;;;;;4.87;78.00;102255.66;10165749;28;20053;-70
2021/03/23 03:24:35;;;;;;;4.80;1.58;;;;;;;4.90;77.37;102255.16;10172044;28;20048;-70
2021/03/23 03:29:31;;;;;;;6.10;1.77;;;;;;;4.70;78.47;102256.41;10182002;28;20803;-69
2021/03/23 03:34:27;;;;;;;6.22;1.85;;;;;;;4.90;78.07;102241.63;10168907;28;20145;-71
2021/03/23 03:39:23;;;;;;;9.98;2.42;;;;;;;4.93;77.08;102243.84;10170966;28;20065;-71
2021/03/23 03:44:19;;;;;;;6.18;2.15;;;;;;;4.97;76.96;102245.03;10176594;28;20049;-70
2021/03/23 03:49:15;;;;;;;6.53;2.70;;;;;;;5.01;77.26;102257.00;10171288;28;20065;-70
2021/03/23 03:54:11;;;;;;;6.45;2.70;;;;;;;4.76;78.34;102263.59;10164570;28;20054;-70
2021/03/23 03:59:07;;;;;;;8.13;3.13;;;;;;;4.73;77.99;102250.50;10173717;28;20686;-72
2021/03/23 04:04:03;;;;;;;8.77;2.40;;;;;;;4.81;77.90;102255.56;10177889;28;20068;-73
2021/03/23 04:09:08;;;;;;;8.98;2.85;;;;;;;4.76;78.51;102246.53;10180305;28;20474;-67
2021/03/23 04:14:04;;;;;;;7.18;2.38;;;;;;;4.85;78.19;102254.03;10182768;28;20056;-67
2021/03/23 04:19:00;;;;;;;8.95;2.63;;;;;;;4.77;78.36;102243.56;10174725;28;20046;-66
2021/03/23 04:23:56;;;;;;;8.13;2.88;;;;;;;4.97;77.81;102251.25;10177648;28;20053;-66
2021/03/23 04:28:52;;;;;;;6.75;2.53;;;;;;;4.81;78.20;102257.47;10172644;28;20508;-68
2021/03/23 04:33:48;;;;;;;7.97;3.00;;;;;;;4.84;78.61;102257.78;10166834;28;20046;-70
2021/03/23 04:38:44;;;;;;;12.88;3.92;;;;;;;4.88;78.20;102246.47;10161230;28;20709;-71
2021/03/23 04:43:47;;;;;;;10.23;3.20;;;;;;;4.78;78.75;102247.94;10176044;28;20459;-69
2021/03/23 04:48:43;;;;;;;8.82;3.47;;;;;;;4.82;78.39;102243.66;10162256;28;20042;-71
2021/03/23 04:53:41;;;;;;;9.07;3.80;;;;;;;4.79;78.63;102238.72;10171514;28;20046;-70
2021/03/23 04:58:37;;;;;;;10.07;3.72;;;;;;;4.78;79.42;102242.50;10169317;28;20124;-67
2021/03/23 05:03:34;;;;;;;10.00;4.28;;;;;;;4.75;79.74;102237.53;10173149;28;20050;-69
2021/03/23 05:08:30;;;;;;;7.90;3.92;;;;;;;4.80;79.97;102234.97;10162711;28;20155;-69
2021/03/23 05:13:26;;;;;;;13.23;4.38;;;;;;;4.72;80.79;102221.78;10174674;28;20053;-72
2021/03/23 05:18:22;;;;;;;9.07;4.35;;;;;;;4.70;80.82;102229.31;10161387;28;20042;-71
2021/03/23 05:23:19;;;;;;;9.23;3.95;;;;;;;4.77;80.46;102224.59;10160047;28;20416;-68
2021/03/23 05:28:15;;;;;;;13.10;4.50;;;;;;;4.78;80.74;102226.25;10168141;28;20100;-71
2021/03/23 05:33:12;;;;;;;13.75;4.57;;;;;;;4.84;80.08;102214.41;10169633;28;20060;-66
2021/03/23 05:38:10;;;;;;;13.40;4.70;;;;;;;4.70;80.92;102221.19;10183123;28;20590;-69
2021/03/23 05:43:26;;;;;;;12.95;4.65;;;;;;;4.62;81.11;102227.84;10169848;28;20660;-69
2021/03/23 05:48:29;;;;;;;9.43;4.20;;;;;;;4.78;80.76;102219.97;10175900;28;20543;-65
2021/03/23 05:53:37;;;;;;;8.93;4.20;;;;;;;4.88;80.65;102225.59;10177909;28;20479;-69
2021/03/23 05:58:40;;;;;;;11.52;4.75;;;;;;;4.80;79.97;102218.69;10169704;28;20451;-65
2021/03/23 06:04:02;;;;;;;12.23;4.68;;;;;;;4.74;79.65;102225.06;10954338;23;20124;-67
2021/03/23 06:08:58;;;;;;;;;;;;;;;4.86;79.61;102219.59;10175872;28;20695;-67
2021/03/23 06:14:13;;;;;;;10.85;4.90;;;;;;;4.89;79.71;102231.84;10173018;28;19922;-69
2021/03/23 06:19:50;;;;;;;13.52;6.72;;;;;;;4.88;79.26;102241.06;10180464;28;20522;-67
2021/03/23 06:24:51;;;;;;;14.48;6.18;;;;;;;4.95;79.68;102236.31;10173594;28;20132;-67
2021/03/23 06:30:05;;;;;;;14.48;6.00;;;;;;;4.92;79.47;102239.47;10175520;28;20100;-68
2021/03/23 06:35:06;;;;;;;20.60;7.97;;;;;;;4.89;80.56;102234.56;10180251;28;20137;-66
2021/03/23 06:40:20;;;;;;;17.23;7.20;;;;;;;4.90;80.64;102249.75;10175069;28;20473;-69
2021/03/23 06:45:33;;;;;;;16.00;7.38;;;;;;;4.93;80.89;102250.09;10178487;28;20050;-68
2021/03/23 06:50:34;;;;;;;19.67;8.45;;;;;;;4.94;81.10;102235.47;10183042;28;20694;-67
2021/03/23 06:55:30;;;;;;;20.48;9.00;;;;;;;5.02;80.92;102236.97;10181700;28;20053;-70
2021/03/23 07:00:32;;;;;;;18.17;9.02;;;;;;;5.03;80.53;102254.88;10186074;28;20074;-67
2021/03/23 07:05:35;;;;;;;16.98;8.88;;;;;;;4.97;80.63;102261.28;10175588;28;20050;-68
2021/03/23 07:10:41;;;;;;;19.80;9.88;;;;;;;4.97;81.26;102262.09;10179436;28;20053;-65
2021/03/23 07:15:37;;;;;;;18.65;10.52;;;;;;;5.02;81.40;102258.66;10169729;28;20092;-65
2021/03/23 07:20:49;;;;;;;21.05;11.07;;;;;;;4.96;82.13;102265.88;10168953;28;20153;-66
2021/03/23 07:25:45;;;;;;;22.98;12.10;;;;;;;4.84;83.51;102257.78;10165050;28;20065;-66
2021/03/23 07:30:47;;;;;;;29.73;12.55;;;;;;;4.92;83.78;102262.00;10165057;28;20499;-72
2021/03/23 07:35:46;;;;;;;25.88;12.88;;;;;;;4.94;83.53;102261.75;10168108;28;20113;-66
2021/03/23 07:40:47;;;;;;;24.77;13.68;;;;;;;4.92;83.93;102267.44;10171262;28;20077;-63
2021/03/23 07:46:02;;;;;;;24.55;12.75;;;;;;;5.03;83.51;102276.56;10172588;28;20132;-72
2021/03/23 07:51:15;;;;;;;24.48;13.60;;;;;;;5.01;83.87;102281.41;10164644;28;20062;-70
2021/03/23 07:56:39;;;;;;;27.38;13.38;;;;;;;5.10;83.39;102274.53;10160708;28;20088;-64
2021/03/23 08:01:58;;;;;;;30.35;14.73;;;;;;;5.07;83.33;102272.31;10172625;28;20082;-65
2021/03/23 08:07:06;;;;;;;26.70;14.32;;;;;;;5.23;83.36;102281.56;10167086;28;20100;-65
2021/03/23 08:12:33;;;;;;;22.52;13.43;;;;;;;5.18;83.02;102279.56;10171849;28;20051;-68
2021/03/23 08:17:58;;;;;;;28.90;14.98;;;;;;;5.25;83.65;102269.41;10165159;28;20073;-69
2021/03/23 08:23:08;;;;;;;;;;;;;;;5.22;83.34;102274.47;10171405;28;20153;-68
2021/03/23 08:28:15;;;;;;;30.02;15.25;;;;;;;5.36;83.37;102275.00;10164076;28;19979;-67
2021/03/23 08:33:42;;;;;;;27.55;16.05;;;;;;;5.39;82.99;102271.81;10178292;28;20104;-71
2021/03/23 08:38:54;;;;;;;26.55;16.58;;;;;;;5.47;83.40;102274.09;10165228;28;20050;-68
2021/03/23 08:43:51;;;;;;;29.58;16.00;;;;;;;5.54;83.07;102288.31;10173295;28;20054;-69
2021/03/23 08:49:01;;;;;;;35.22;19.05;;;;;;;5.32;83.64;102292.84;10168580;28;20052;-67
2021/03/23 08:54:03;;;;;;;27.52;16.00;;;;;;;5.60;83.73;102289.25;10166448;28;20043;-72
2021/03/23 08:58:59;;;;;;;25.48;15.07;;;;;;;5.55;83.95;102289.19;10172254;28;20447;-64
2021/03/23 09:04:10;;;;;;;29.50;16.98;;;;;;;5.60;83.40;102292.78;10172059;28;20368;-65
2021/03/23 09:09:25;;;;;;;31.00;17.25;;;;;;;5.49;83.45;102301.81;10175776;28;20046;-72
2021/03/23 09:14:23;;;;;;;31.00;17.65;;;;;;;5.59;83.28;102296.56;10172360;28;20053;-69
2021/03/23 09:19:37;;;;;;;35.00;17.80;;;;;;;5.50;83.86;102295.34;10188764;28;20104;-71
2021/03/23 09:24:37;;;;;;;33.22;16.55;;;;;;;5.38;83.94;102321.69;10188727;28;20046;-68
2021/03/23 09:29:46;;;;;;;38.20;17.23;;;;;;;5.43;83.93;102319.06;10190331;28;20495;-66
2021/03/23 09:35:01;;;;;;;31.27;17.63;;;;;;;5.55;83.77;102317.13;10181601;28;20479;-64
2021/03/23 09:39:58;;;;;;;39.70;17.02;;;;;;;5.54;83.55;102328.22;10183636;28;20085;-70
2021/03/23 09:45:03;;;;;;;35.95;17.05;;;;;;;5.57;83.66;102333.97;10179879;28;20074;-64
2021/03/23 09:49:59;;;;;;;25.80;15.43;;;;;;;5.60;82.86;102329.94;10171197;28;20506;-67
2021/03/23 09:54:59;;;;;;;35.60;16.73;;;;;;;5.65;83.45;102322.72;10178441;28;20042;-65
2021/03/23 09:59:58;;;;;;;32.42;16.60;;;;;;;5.79;82.05;102327.81;10171956;28;20054;-70
2021/03/23 10:04:55;;;;;;;31.27;16.85;;;;;;;5.77;82.03;102324.53;10180012;28;20536;-72
2021/03/23 10:09:51;;;;;;;34.60;16.67;;;;;;;5.92;81.82;102322.09;10173159;28;20550;-67
2021/03/23 10:14:47;;;;;;;31.85;17.25;;;;;;;5.83;81.02;102320.84;10177474;28;20079;-68
2021/03/23 10:19:50;;;;;;;34.30;17.50;;;;;;;5.72;81.74;102327.97;10187442;28;20087;-65
2021/03/23 10:24:47;;;;;;;36.00;18.05;;;;;;;5.86;81.08;102333.91;10185575;28;20640;-69
2021/03/23 10:29:56;;;;;;;35.30;18.75;;;;;;;6.05;79.78;102342.66;10174019;28;20054;-66
2021/03/23 10:35:11;;;;;;;37.83;18.90;;;;;;;6.01;79.87;102347.78;10172477;28;20050;-66
2021/03/23 10:40:38;;;;;;;40.45;21.20;;;;;;;6.09;79.34;102350.06;10168255;28;20096;-68
2021/03/23 10:45:41;;;;;;;34.70;18.25;;;;;;;6.15;78.84;102342.00;10157041;28;20042;-67
2021/03/23 10:50:38;;;;;;;33.80;18.47;;;;;;;6.05;78.43;102343.47;10162770;28;20077;-70
2021/03/23 10:55:38;;;;;;;40.03;19.10;;;;;;;6.05;78.35;102343.47;10165147;28;20054;-65
2021/03/23 11:00:36;;;;;;;35.95;16.17;;;;;;;6.01;77.42;102342.34;10166432;28;20072;-65
2021/03/23 11:05:42;;;;;;;31.55;15.60;;;;;;;6.03;77.27;102344.78;10168977;28;20065;-64
2021/03/23 11:10:38;;;;;;;31.98;17.05;;;;;;;6.06;77.19;102342.44;10182423;28;20053;-69
2021/03/23 11:15:39;;;;;;;35.10;17.02;;;;;;;6.13;76.74;102338.69;10171439;28;20050;-65
2021/03/23 11:20:38;;;;;;;32.55;17.25;;;;;;;6.28;76.31;102341.66;10180875;28;20470;-67
2021/03/23 11:25:34;;;;;;;34.97;19.65;;;;;;;6.24;76.16;102335.06;10175246;28;20167;-67
2021/03/23 11:30:30;;;;;;;28.23;16.58;;;;;;;6.32;74.99;102332.75;10184976;28;20561;-64
2021/03/23 11:35:26;;;;;;;32.58;16.88;;;;;;;6.27;74.87;102335.41;10181998;28;20076;-65
2021/03/23 11:40:22;;;;;;;31.20;16.05;;;;;;;6.38;74.62;102330.94;10177789;28;20057;-65
2021/03/23 11:45:41;;;;;;;28.25;14.85;;;;;;;6.25;73.97;102332.13;10183366;28;20041;-66
2021/03/23 11:50:38;;;;;;;29.15;16.13;;;;;;;6.23;74.12;102317.97;10179135;28;20045;-68
2021/03/23 11:55:37;;;;;;;25.30;13.90;;;;;;;6.48;73.35;102313.97;10162269;28;20527;-67
2021/03/23 12:00:34;;;;;;;30.70;15.80;;;;;;;6.51;73.09;102319.72;10175365;28;20507;-66
2021/03/23 12:05:31;;;;;;;33.67;18.13;;;;;;;6.67;72.74;102317.19;10174862;28;20050;-65
2021/03/23 12:10:41;;;;;;;32.53;18.35;;;;;;;6.76;72.40;102315.69;10176688;28;20107;-70
2021/03/23 12:15:41;;;;;;;37.03;18.75;;;;;;;6.81;72.33;102318.47;10164086;28;20120;-66
2021/03/23 12:20:38;;;;;;;40.25;19.92;;;;;;;6.78;71.82;102318.97;10162208;28;20050;-63
2021/03/23 12:25:35;;;;;;;35.20;18.55;;;;;;;6.90;70.62;102321.56;10177561;28;20054;-64
2021/03/23 12:30:31;;;;;;;37.30;19.33;;;;;;;7.00;70.13;102315.41;10178868;28;20069;-64
2021/03/23 12:35:29;;;;;;;30.98;16.48;;;;;;;7.07;69.86;102316.84;10150604;28;20104;-69
2021/03/23 12:40:28;;;;;;;31.67;18.88;;;;;;;7.02;69.81;102313.28;10162567;28;20050;-65
2021/03/23 12:45:34;;;;;;;33.95;17.63;;;;;;;6.97;69.87;102308.59;10163406;28;20050;-66
2021/03/23 12:50:31;;;;;;;30.27;16.10;;;;;;;6.97;67.74;102299.63;10166462;28;20138;-67
2021/03/23 12:55:29;;;;;;;32.47;17.52;;;;;;;7.25;67.95;102302.09;10165945;28;20104;-67
2021/03/23 13:00:32;;;;;;;32.80;16.95;;;;;;;7.25;66.09;102310.25;10169464;28;20551;-68
2021/03/23 13:05:30;;;;;;;35.00;20.47;;;;;;;7.11;67.71;102300.84;10164156;28;20045;-66
2021/03/23 13:10:38;;;;;;;38.92;21.15;;;;;;;7.07;67.63;102299.72;10160690;28;20046;-65
2021/03/23 13:15:38;;;;;;;40.55;21.27;;;;;;;7.13;68.50;102304.16;10170407;28;20046;-67
2021/03/23 13:20:34;;;;;;;36.95;21.23;;;;;;;7.15;68.62;102302.00;10164246;28;20067;-70
2021/03/23 13:25:38;;;;;;;37.00;19.38;;;;;;;7.15;67.80;102291.13;10172923;28;20137;-69
2021/03/23 13:30:34;;;;;;;33.40;18.40;;;;;;;7.15;67.16;102291.13;10168729;28;20482;-65
2021/03/23 13:35:30;;;;;;;36.83;19.73;;;;;;;7.14;67.35;102297.63;10159305;28;20552;-66
2021/03/23 13:40:30;;;;;;;33.50;19.55;;;;;;;7.16;68.33;102293.56;10164999;28;20100;-66
2021/03/23 13:45:36;;;;;;;35.75;20.73;;;;;;;7.03;68.55;102293.13;10167130;28;20042;-65
2021/03/23 13:50:33;;;;;;;34.00;20.00;;;;;;;6.95;69.08;102300.69;10157531;28;20210;-69
2021/03/23 13:55:31;;;;;;;34.50;19.35;;;;;;;6.83;70.07;102291.84;10167558;28;20539;-67
2021/03/23 14:00:44;;;;;;;33.85;19.38;;;;;;;6.89;69.32;102288.13;10168547;28;20111;-65
2021/03/23 14:05:40;;;;;;;31.85;19.65;;;;;;;6.87;69.94;102284.84;10178500;28;20168;-67
2021/03/23 14:10:36;;;;;;;36.35;21.15;;;;;;;7.05;69.37;102297.25;10177846;28;20415;-69
2021/03/23 14:15:36;;;;;;;31.60;17.65;;;;;;;6.93;69.18;102288.41;10174488;28;20050;-66
2021/03/23 14:20:33;;;;;;;37.35;19.10;;;;;;;7.10;69.01;102293.75;10163721;28;20053;-68
2021/03/23 14:25:33;;;;;;;22.65;12.27;;;;;;;7.16;67.11;102288.13;10172794;28;20077;-69
2021/03/23 14:30:34;;;;;;;23.08;11.93;;;;;;;7.29;65.90;102291.53;10173884;28;20419;-65
2021/03/23 14:35:30;;;;;;;24.48;12.27;;;;;;;7.28;66.29;102289.88;10169177;28;20057;-71
2021/03/23 14:40:35;;;;;;;26.77;13.70;;;;;;;7.29;66.41;102284.19;10171298;28;20108;-71
2021/03/23 14:45:34;;;;;;;26.38;13.20;;;;;;;7.27;67.12;102283.63;10173233;28;20046;-75
2021/03/23 14:50:31;;;;;;;31.95;16.08;;;;;;;7.28;66.84;102285.25;10172419;28;20050;-65
2021/03/23 14:55:29;;;;;;;28.70;14.25;;;;;;;7.18;67.02;102279.72;10180631;28;20142;-70
2021/03/23 15:00:35;;;;;;;29.60;15.68;;;;;;;7.17;67.04;102288.94;10172333;28;20104;-68
2021/03/23 15:05:31;;;;;;;26.90;12.07;;;;;;;7.08;66.96;102287.78;10170158;28;20097;-67
2021/03/23 15:10:30;;;;;;;27.23;14.02;;;;;;;7.13;67.71;102293.28;10177098;28;20115;-67
2021/03/23 15:15:30;;;;;;;31.13;18.63;;;;;;;6.99;68.40;102281.16;10178211;28;20060;-68
2021/03/23 15:20:28;;;;;;;35.38;16.88;;;;;;;7.12;68.45;102286.16;10181050;28;20050;-69
2021/03/23 15:25:29;;;;;;;28.65;16.25;;;;;;;7.04;69.07;102283.91;10181049;28;20135;-67
2021/03/23 15:30:31;;;;;;;23.77;14.77;;;;;;;7.10;68.15;102282.88;10167732;28;20419;-68
2021/03/23 15:35:28;;;;;;;28.40;14.55;;;;;;;7.16;68.34;102282.69;10182336;28;20545;-68
2021/03/23 15:40:28;;;;;;;23.33;12.02;;;;;;;7.13;67.44;102282.38;10167609;28;20124;-71
2021/03/23 15:45:30;;;;;;;26.27;15.23;;;;;;;7.16;68.27;102270.97;10174780;28;20104;-65
2021/03/23 15:50:27;;;;;;;27.77;16.13;;;;;;;7.08;69.40;102263.31;10178415;28;20532;-67
2021/03/23 15:55:28;;;;;;;29.77;16.35;;;;;;;7.15;69.17;102269.34;10179491;28;20049;-67
2021/03/23 16:00:33;;;;;;;28.02;16.38;;;;;;;7.04;69.26;102268.41;10177828;28;20392;-66
2021/03/23 16:05:31;;;;;;;29.73;14.05;;;;;;;7.22;68.36;102269.13;10173474;28;20562;-68
2021/03/23 16:10:28;;;;;;;23.73;14.20;;;;;;;7.25;67.98;102264.00;10169648;28;20454;-70
2021/03/23 16:15:28;;;;;;;25.40;14.02;;;;;;;7.31;68.12;102252.09;10167125;28;20127;-64
2021/03/23 16:20:25;;;;;;;28.35;15.93;;;;;;;7.36;67.73;102252.13;10198307;28;20099;-64
2021/03/23 16:25:36;;;;;;;29.52;16.25;;;;;;;7.42;68.01;102246.72;10188433;28;20085;-65
2021/03/23 16:30:33;;;;;;;30.83;15.98;;;;;;;7.40;67.35;102238.81;10200884;28;20077;-68
2021/03/23 16:35:36;;;;;;;25.90;14.80;;;;;;;7.37;67.31;102245.59;10161628;28;20049;-68
2021/03/23 16:40:33;;;;;;;28.85;14.20;;;;;;;7.32;67.68;102248.28;10157910;28;20101;-68
2021/03/23 16:45:33;;;;;;;27.27;14.32;;;;;;;7.30;66.99;102245.00;10173469;28;20129;-72
2021/03/23 16:50:31;;;;;;;22.98;11.93;;;;;;;7.33;66.79;102244.50;10156155;28;20050;-66
2021/03/23 16:55:36;;;;;;;24.15;12.32;;;;;;;7.32;66.74;102242.84;10160618;28;20116;-67
2021/03/23 17:00:35;;;;;;;30.67;13.82;;;;;;;7.26;67.20;102243.88;10154529;28;20056;-66
2021/03/23 17:05:32;;;;;;;25.80;13.73;;;;;;;7.12;67.55;102248.91;10154147;28;20136;-64
2021/03/23 17:10:29;;;;;;;25.13;12.70;;;;;;;7.32;67.37;102245.56;10158712;28;20084;-65
2021/03/23 17:15:27;;;;;;;27.80;14.07;;;;;;;7.34;67.65;102246.13;10160642;28;20497;-67
2021/03/23 17:20:31;;;;;;;23.80;14.00;;;;;;;7.32;67.90;102245.56;10173141;28;20148;-68
2021/03/23 17:25:38;;;;;;;26.08;12.68;;;;;;;7.34;67.83;102250.75;10158843;28;21303;-68
2021/03/23 17:30:35;;;;;;;21.70;12.95;;;;;;;7.30;67.82;102250.44;10159306;28;20439;-67
2021/03/23 17:35:31;;;;;;;24.10;13.30;;;;;;;7.36;67.72;102259.50;10161592;28;20057;-66
2021/03/23 17:40:29;;;;;;;24.23;14.43;;;;;;;7.34;67.90;102267.91;10168957;28;20057;-70
2021/03/23 17:45:29;;;;;;;28.17;14.57;;;;;;;7.29;68.22;102259.69;10177952;28;20054;-68
2021/03/23 17:50:26;;;;;;;28.33;15.20;;;;;;;7.25;68.70;102266.72;10177455;28;20081;-68
2021/03/23 17:55:25;;;;;;;32.60;16.83;;;;;;;7.26;68.47;102265.63;10184985;28;20054;-69
2021/03/23 18:00:24;;;;;;;29.20;15.55;;;;;;;7.27;68.64;102264.56;10169690;28;20432;-65
2021/03/23 18:05:24;;;;;;;26.08;16.13;;;;;;;7.19;69.00;102269.66;10177613;28;20093;-68
2021/03/23 18:10:24;;;;;;;25.98;15.35;;;;;;;7.21;69.31;102279.19;10172502;28;20338;-67
2021/03/23 18:15:39;;;;;;;28.05;16.17;;;;;;;7.10;69.82;102269.28;10177299;28;20073;-66
2021/03/23 18:20:36;;;;;;;29.30;17.45;;;;;;;7.07;70.05;102283.41;10184963;28;20053;-69
2021/03/23 18:25:35;;;;;;;29.67;16.10;;;;;;;7.19;69.96;102281.34;10176917;28;20054;-69
2021/03/23 18:30:32;;;;;;;31.33;16.67;;;;;;;7.22;70.11;102285.44;10174713;28;20054;-69
2021/03/23 18:35:29;;;;;;;29.38;17.15;;;;;;;7.16;70.19;102288.13;10157200;28;20096;-70
2021/03/23 18:40:28;;;;;;;25.52;14.57;;;;;;;7.21;70.19;102290.06;10166927;28;20057;-66
2021/03/23 18:45:28;;;;;;;27.33;16.08;;;;;;;7.26;70.11;102287.41;10171045;28;20120;-69
2021/03/23 18:50:26;;;;;;;32.28;16.70;;;;;;;7.30;69.87;102293.97;10167405;28;20046;-67
2021/03/23 18:55:30;;;;;;;26.80;16.08;;;;;;;7.28;70.27;102298.03;10169391;28;20049;-63
2021/03/23 19:00:26;;;;;;;28.60;16.67;;;;;;;7.21;70.68;102295.50;10157501;28;20606;-67
2021/03/23 19:05:25;;;;;;;35.35;19.65;;;;;;;7.20;70.83;102293.88;10173085;28;20103;-69
2021/03/23 19:10:25;;;;;;;25.95;16.15;;;;;;;7.21;70.90;102290.06;10158965;28;20076;-67
2021/03/23 19:15:23;;;;;;;31.38;18.80;;;;;;;7.22;70.91;102291.72;10165647;28;20058;-65
2021/03/23 19:20:29;;;;;;;33.55;18.65;;;;;;;7.14;70.94;102284.03;10166847;28;20050;-69
2021/03/23 19:25:25;;;;;;;33.72;19.02;;;;;;;7.18;71.21;102290.59;10171271;28;20145;-67
2021/03/23 19:30:21;;;;;;;29.15;17.63;;;;;;;7.21;71.15;102284.63;10167246;28;20120;-66
2021/03/23 19:35:19;;;;;;;30.45;18.48;;;;;;;7.16;71.02;102273.72;10164543;28;20461;-70
2021/03/23 19:40:19;;;;;;;30.90;18.48;;;;;;;7.23;70.92;102276.22;10163303;28;20133;-70
2021/03/23 19:45:16;;;;;;;35.28;19.17;;;;;;;7.15;70.64;102269.34;10169957;28;20483;-68
2021/03/23 19:50:18;;;;;;;34.22;18.80;;;;;;;7.23;70.38;102273.50;10164692;28;20069;-64
2021/03/23 19:55:28;;;;;;;30.20;18.98;;;;;;;7.22;70.31;102269.97;10162533;28;20042;-65
2021/03/23 20:00:26;;;;;;;30.42;19.17;;;;;;;7.25;70.21;102261.28;10169484;28;20499;-67
2021/03/23 20:05:25;;;;;;;33.28;19.42;;;;;;;7.23;69.93;102266.16;10172668;28;20050;-68
2021/03/23 20:10:24;;;;;;;33.42;19.17;;;;;;;7.23;69.98;102271.59;10158555;28;20075;-67
2021/03/23 20:15:24;;;;;;;27.83;16.98;;;;;;;7.24;69.41;102262.38;10172791;28;20554;-67
2021/03/23 20:20:25;;;;;;;30.48;17.08;;;;;;;7.29;68.95;102265.13;10155825;28;20092;-69
2021/03/23 20:25:23;;;;;;;34.90;19.40;;;;;;;7.23;69.40;102266.16;10161889;28;20041;-66
2021/03/23 20:30:22;;;;;;;30.85;19.17;;;;;;;7.22;68.91;102260.97;10171072;28;20493;-65
2021/03/23 20:35:25;;;;;;;30.38;17.70;;;;;;;7.22;68.75;102253.66;10170223;28;20049;-66
2021/03/23 20:40:22;;;;;;;31.38;17.63;;;;;;;7.26;69.34;102257.47;10170852;28;20142;-66
2021/03/23 20:45:19;;;;;;;31.52;19.00;;;;;;;7.30;68.60;102261.31;10166143;28;20137;-68
2021/03/23 20:50:21;;;;;;;32.85;20.17;;;;;;;7.29;68.44;102254.25;10156683;28;20072;-63
2021/03/23 20:55:18;;;;;;;30.55;17.48;;;;;;;7.38;68.08;102258.16;10164401;28;20046;-67
2021/03/23 21:00:19;;;;;;;28.92;17.88;;;;;;;7.44;68.06;102259.00;10161958;28;20074;-67
2021/03/23 21:05:19;;;;;;;24.75;16.30;;;;;;;7.48;67.93;102262.03;10170171;28;20049;-69
2021/03/23 21:10:20;;;;;;;28.52;17.52;;;;;;;7.54;67.23;102258.25;10173436;28;20054;-69
2021/03/23 21:15:17;;;;;;;36.00;20.85;;;;;;;7.50;67.20;102249.00;10172443;28;20074;-69
2021/03/23 21:20:17;;;;;;;29.92;18.08;;;;;;;7.49;67.45;102263.66;10172032;28;20054;-68
2021/03/23 21:25:22;;;;;;;28.25;17.67;;;;;;;7.53;67.60;102256.63;10170935;28;20684;-70
2021/03/23 21:30:21;;;;;;;33.35;18.95;;;;;;;7.34;68.02;102248.84;10179120;28;20078;-68
2021/03/23 21:35:18;;;;;;;35.47;18.83;;;;;;;7.38;67.68;102247.25;10172227;28;20075;-68
2021/03/23 21:40:15;;;;;;;29.52;18.67;;;;;;;7.26;67.93;102243.88;10176631;28;20056;-69
2021/03/23 21:45:17;;;;;;;28.33;17.35;;;;;;;7.16;69.05;102244.59;10184752;28;20496;-70
2021/03/23 21:50:19;;;;;;;33.95;18.17;;;;;;;7.23;69.39;102243.56;10182743;28;20073;-70
2021/03/23 21:55:16;;;;;;;29.67;19.48;;;;;;;7.24;69.96;102246.06;10183883;28;20060;-71
2021/03/23 22:00:18;;;;;;;31.08;19.08;;;;;;;7.25;69.97;102239.53;10186560;28;20103;-69
2021/03/23 22:05:14;;;;;;;27.95;17.85;;;;;;;7.31;70.21;102240.38;10190869;28;20058;-69
2021/03/23 22:10:11;;;;;;;32.40;20.88;;;;;;;7.34;69.09;102237.97;10186430;28;20827;-68
2021/03/23 22:15:09;;;;;;;29.83;18.25;;;;;;;7.35;69.74;102247.75;10171331;28;20046;-69
2021/03/23 22:20:05;;;;;;;28.95;19.80;;;;;;;7.42;68.75;102238.56;10187618;28;20125;-69
2021/03/23 22:25:02;;;;;;;37.40;20.25;;;;;;;7.41;68.71;102245.09;10182997;28;20038;-69
2021/03/23 22:29:58;;;;;;;34.50;21.63;;;;;;;7.38;69.44;102241.81;10180940;28;20046;-69
2021/03/23 22:34:54;;;;;;;39.03;22.02;;;;;;;7.36;69.52;102235.00;10188361;28;20082;-69
2021/03/23 22:39:51;;;;;;;39.53;24.27;;;;;;;7.35;69.52;102236.88;10177321;28;20057;-68
2021/03/23 22:44:47;;;;;;;36.25;22.70;;;;;;;7.31;68.66;102234.94;10166986;28;20052;-68
2021/03/23 22:49:43;;;;;;;38.03;22.98;;;;;;;7.40;69.21;102232.56;10179808;28;20050;-69
2021/03/23 22:54:39;;;;;;;37.22;24.17;;;;;;;7.28;69.16;102230.81;10165433;28;20054;-69